Time;durP1;ratioP1;P1;durP2;ratioP2;P2;SDS_P1;SDS_P2;PMS_P1;PMS_P2;Temp;Humidity;BMP_temperature;BMP_pressure;BME280_temperature;BME280_humidity;BME280_pressure;Samples;Min_cycle;Max_cycle;Signal;HPM_P1;HPM_P2
2021/09/15 00:01:35;;;;;;;9.27;7.50;;;22.90;86.60;;;;;;5075596;28;20019;-61
2021/09/15 00:04:01;;;;;;;13.52;6.75;;;22.90;86.70;;;;;;5082934;28;20058;-61
2021/09/15 00:06:26;;;;;;;13.82;7.28;;;22.90;86.80;;;;;;5091675;28;20036;-61
2021/09/15 00:08:52;;;;;;;13.77;6.95;;;22.90;86.90;;;;;;5070806;28;20035;-61
2021/09/15 00:11:19;;;;;;;10.40;6.70;;;22.90;87.00;;;;;;5053501;28;20328;-61
2021/09/15 00:13:45;;;;;;;11.88;7.15;;;22.90;87.10;;;;;;5088305;28;20429;-61
2021/09/15 00:16:10;;;;;;;9.88;6.78;;;22.80;87.20;;;;;;5070113;28;20020;-61
2021/09/15 00:18:36;;;;;;;13.40;7.05;;;22.80;87.20;;;;;;5092350;28;20028;-61
2021/09/15 00:21:01;;;;;;;11.45;7.57;;;22.80;87.40;;;;;;5089108;28;20052;-61
2021/09/15 00:23:27;;;;;;;9.32;6.88;;;22.80;87.50;;;;;;5070386;28;20169;-61
2021/09/15 00:25:52;;;;;;;8.95;7.00;;;22.80;87.60;;;;;;5086287;28;20028;-61
2021/09/15 00:28:18;;;;;;;11.40;7.30;;;22.80;87.70;;;;;;5074744;28;20488;-61
2021/09/15 00:30:43;;;;;;;11.43;7.25;;;22.80;87.70;;;;;;5085294;28;20036;-61
2021/09/15 00:33:09;;;;;;;11.65;7.50;;;22.80;87.80;;;;;;5088094;28;20047;-61
2021/09/15 00:35:34;;;;;;;11.85;6.80;;;22.70;87.90;;;;;;5090480;28;20520;-61
2021/09/15 00:38:00;;;;;;;10.38;7.28;;;22.70;88.10;;;;;;5065116;28;20405;-61
2021/09/15 00:40:25;;;;;;;9.95;6.85;;;22.70;88.20;;;;;;5066392;28;20436;-61
2021/09/15 00:42:51;;;;;;;9.45;7.75;;;22.70;88.20;;;;;;5081489;28;20371;-62
2021/09/15 00:45:16;;;;;;;9.25;7.78;;;22.70;88.30;;;;;;5078422;28;20690;-60
2021/09/15 00:47:42;;;;;;;10.50;8.38;;;22.50;88.40;;;;;;5075337;28;20024;-61
2021/09/15 00:50:08;;;;;;;11.18;7.53;;;22.70;88.60;;;;;;5075665;28;20579;-61
2021/09/15 00:52:34;;;;;;;10.27;7.40;;;22.70;88.60;;;;;;5080608;28;20103;-61
2021/09/15 00:54:59;;;;;;;9.55;7.40;;;22.60;88.70;;;;;;5078157;28;20096;-61
2021/09/15 00:57:25;;;;;;;8.70;7.55;;;22.60;88.70;;;;;;5080384;28;20040;-61
2021/09/15 00:59:50;;;;;;;8.95;7.38;;;22.60;88.90;;;;;;5081543;28;20032;-61
2021/09/15 01:02:15;;;;;;;9.43;7.50;;;22.60;88.90;;;;;;5075018;28;20028;-61
2021/09/15 01:04:42;;;;;;;7.45;6.55;;;22.60;89.60;;;;;;5074781;28;20048;-61
2021/09/15 01:07:09;;;;;;;12.73;6.55;;;22.60;89.10;;;;;;5076944;28;20035;-61
2021/09/15 01:09:35;;;;;;;8.98;7.55;;;22.60;89.10;;;;;;5070453;28;20029;-60
2021/09/15 01:12:00;;;;;;;10.13;6.63;;;22.60;89.20;;;;;;5045405;28;20039;-61
2021/09/15 01:14:26;;;;;;;8.82;7.20;;;22.60;89.20;;;;;;5064632;28;20035;-61
2021/09/15 01:16:53;;;;;;;10.95;7.28;;;22.50;89.20;;;;;;5058959;28;20511;-61
2021/09/15 01:19:21;;;;;;;10.18;6.80;;;22.50;89.20;;;;;;5058240;28;20119;-61
2021/09/15 01:21:47;;;;;;;8.93;6.78;;;22.50;89.30;;;;;;5070630;28;20033;-61
2021/09/15 01:24:12;;;;;;;11.57;7.28;;;22.50;89.30;;;;;;5068664;28;20050;-61
2021/09/15 01:26:38;;;;;;;11.00;6.95;;;22.50;89.40;;;;;;5081270;28;20087;-61
2021/09/15 01:29:03;;;;;;;8.85;7.18;;;22.50;89.50;;;;;;5081176;28;20141;-61
2021/09/15 01:31:29;;;;;;;13.27;7.57;;;22.50;89.50;;;;;;5081974;28;20137;-61
2021/09/15 01:33:54;;;;;;;8.68;7.78;;;22.50;89.50;;;;;;5080362;28;20356;-61
2021/09/15 01:36:20;;;;;;;9.82;7.82;;;22.50;89.50;;;;;;5055691;28;20081;-60
2021/09/15 01:38:45;;;;;;;10.32;8.13;;;22.50;89.50;;;;;;5079469;28;20521;-61
2021/09/15 01:41:11;;;;;;;10.85;8.07;;;22.40;89.50;;;;;;5080334;28;20581;-61
2021/09/15 01:43:36;;;;;;;17.40;10.30;;;22.50;89.60;;;;;;5072676;28;20135;-61
2021/09/15 01:46:02;;;;;;;14.60;9.95;;;22.40;89.70;;;;;;5074985;28;20048;-61
2021/09/15 01:48:27;;;;;;;10.57;9.55;;;22.50;89.80;;;;;;5076703;28;20055;-61
2021/09/15 01:50:53;;;;;;;12.02;9.25;;;22.40;89.70;;;;;;5075506;28;20111;-61
2021/09/15 01:53:18;;;;;;;11.90;9.38;;;22.40;89.70;;;;;;5053994;28;20059;-61
2021/09/15 01:55:44;;;;;;;11.13;8.73;;;22.40;89.80;;;;;;5074386;28;20476;-61
2021/09/15 01:58:10;;;;;;;10.65;8.45;;;22.40;90.00;;;;;;5080241;28;20032;-62
2021/09/15 02:00:36;;;;;;;10.50;8.68;;;22.40;90.00;;;;;;5064480;28;20269;-61
2021/09/15 02:03:01;;;;;;;10.52;8.13;;;22.40;90.00;;;;;;5085744;28;20074;-62
2021/09/15 02:05:27;;;;;;;8.65;7.75;;;22.30;90.10;;;;;;5069697;28;20442;-61
2021/09/15 02:07:52;;;;;;;10.25;8.02;;;22.40;90.10;;;;;;5080557;28;20028;-61
2021/09/15 02:10:18;;;;;;;9.25;7.95;;;22.40;90.20;;;;;;5077092;28;20033;-61
2021/09/15 02:12:43;;;;;;;12.45;8.07;;;22.30;90.10;;;;;;5085032;28;20076;-61
2021/09/15 02:15:10;;;;;;;10.45;7.63;;;22.30;90.20;;;;;;5077534;28;20063;-61
2021/09/15 02:17:36;;;;;;;10.13;7.93;;;22.30;90.30;;;;;;5082125;28;20047;-63
2021/09/15 02:20:02;;;;;;;8.23;7.43;;;22.30;90.30;;;;;;5077091;28;20040;-61
2021/09/15 02:22:28;;;;;;;15.30;7.85;;;22.30;90.40;;;;;;5086517;28;20070;-61
2021/09/15 02:24:53;;;;;;;9.85;7.75;;;22.30;90.40;;;;;;5065354;28;20036;-61
2021/09/15 02:27:19;;;;;;;10.35;7.32;;;22.20;90.40;;;;;;5087284;28;20040;-61
2021/09/15 02:29:44;;;;;;;9.30;7.03;;;22.30;90.50;;;;;;5052310;28;20024;-61
2021/09/15 02:32:10;;;;;;;8.48;7.57;;;22.30;90.60;;;;;;5071156;28;20128;-61
2021/09/15 02:34:35;;;;;;;8.30;7.50;;;22.30;90.60;;;;;;5077034;28;20020;-61
2021/09/15 02:37:01;;;;;;;11.50;8.18;;;22.30;90.60;;;;;;5077339;28;20082;-61
2021/09/15 02:39:27;;;;;;;8.80;7.90;;;22.20;90.50;;;;;;5090170;28;20512;-61
2021/09/15 02:41:52;;;;;;;11.00;7.85;;;22.20;90.60;;;;;;5091039;28;20039;-61
2021/09/15 02:44:18;;;;;;;9.10;6.80;;;22.20;90.60;;;;;;5093244;28;20020;-61
2021/09/15 02:46:43;;;;;;;8.20;7.15;;;22.20;90.60;;;;;;5081599;28;20027;-61
2021/09/15 02:49:08;;;;;;;11.43;6.90;;;22.20;90.60;;;;;;5083882;28;20024;-61
2021/09/15 02:51:34;;;;;;;10.05;7.10;;;22.20;90.70;;;;;;5080741;28;20376;-61
2021/09/15 02:54:00;;;;;;;8.27;6.75;;;22.20;90.70;;;;;;5077618;28;20033;-61
2021/09/15 02:56:25;;;;;;;8.10;7.30;;;22.20;90.70;;;;;;5069723;28;20030;-61
2021/09/15 02:58:50;;;;;;;7.50;6.75;;;22.20;90.70;;;;;;5066551;28;20043;-61
2021/09/15 03:01:16;;;;;;;13.52;7.03;;;22.20;90.70;;;;;;5086686;28;20062;-60
2021/09/15 03:03:42;;;;;;;11.05;6.63;;;22.20;90.80;;;;;;5044048;28;20043;-61
2021/09/15 03:06:07;;;;;;;7.75;6.95;;;22.20;90.80;;;;;;5083745;28;20086;-62
2021/09/15 03:08:33;;;;;;;7.82;7.03;;;22.10;90.80;;;;;;5089893;28;20031;-61
2021/09/15 03:10:58;;;;;;;9.85;6.72;;;22.10;90.80;;;;;;5069792;28;20035;-60
2021/09/15 03:13:24;;;;;;;8.15;6.55;;;22.10;90.80;;;;;;5079726;28;20028;-60
2021/09/15 03:15:49;;;;;;;7.97;6.57;;;22.10;90.80;;;;;;5090043;28;20089;-61
2021/09/15 03:18:15;;;;;;;10.20;7.18;;;22.10;90.90;;;;;;5081503;28;20266;-61
2021/09/15 03:20:40;;;;;;;11.43;7.50;;;22.10;90.90;;;;;;5088155;28;20379;-61
2021/09/15 03:23:06;;;;;;;9.27;6.47;;;22.10;90.90;;;;;;5057100;28;20020;-61
2021/09/15 03:25:32;;;;;;;10.30;6.78;;;22.10;91.00;;;;;;5066698;28;20024;-61
2021/09/15 03:27:57;;;;;;;11.55;7.22;;;22.00;91.00;;;;;;5061707;28;20025;-61
2021/09/15 03:30:24;;;;;;;10.98;7.03;;;22.00;91.00;;;;;;5066400;28;20074;-61
2021/09/15 03:32:50;;;;;;;14.18;7.60;;;22.00;91.00;;;;;;5061484;28;20024;-61
2021/09/15 03:35:15;;;;;;;19.30;7.50;;;22.00;90.90;;;;;;5066223;28;20216;-61
2021/09/15 03:37:41;;;;;;;31.52;7.55;;;22.00;90.90;;;;;;5062632;28;20039;-61
2021/09/15 03:40:07;;;;;;;37.42;9.77;;;22.00;90.90;;;;;;5085641;28;20258;-61
2021/09/15 03:42:33;;;;;;;29.02;9.05;;;22.00;91.00;;;;;;5085855;28;20028;-61
2021/09/15 03:44:58;;;;;;;45.67;9.32;;;22.00;91.00;;;;;;5049642;28;20027;-61
2021/09/15 03:47:24;;;;;;;40.90;8.82;;;22.00;91.00;;;;;;5072070;28;20024;-61
2021/09/15 03:49:49;;;;;;;33.50;8.75;;;22.00;91.00;;;;;;5073191;28;20111;-61
2021/09/15 03:52:15;;;;;;;50.28;9.38;;;22.00;91.10;;;;;;5080389;28;20345;-61
2021/09/15 03:54:40;;;;;;;23.42;8.32;;;22.00;91.00;;;;;;5085872;28;20020;-62
2021/09/15 03:57:06;;;;;;;30.92;8.30;;;22.00;91.00;;;;;;5087881;28;20044;-61
2021/09/15 03:59:31;;;;;;;42.53;9.18;;;22.00;91.00;;;;;;5069050;28;20495;-61
2021/09/15 04:01:57;;;;;;;35.85;8.82;;;21.90;91.00;;;;;;5077429;28;20064;-61
2021/09/15 04:04:22;;;;;;;30.13;8.45;;;22.00;91.10;;;;;;5085710;28;20036;-61
2021/09/15 04:06:48;;;;;;;36.55;8.98;;;21.90;91.10;;;;;;5094945;28;20081;-61
2021/09/15 04:09:13;;;;;;;28.48;8.30;;;21.90;91.10;;;;;;5086858;28;20074;-61
2021/09/15 04:11:39;;;;;;;39.97;9.00;;;21.90;91.20;;;;;;5087281;28;20379;-61
2021/09/15 04:14:04;;;;;;;28.05;8.18;;;21.90;91.20;;;;;;5097445;28;20379;-61
2021/09/15 04:16:30;;;;;;;35.35;8.05;;;21.90;91.20;;;;;;5065619;28;20020;-61
2021/09/15 04:18:55;;;;;;;24.80;8.18;;;21.90;91.20;;;;;;5069343;28;20020;-61
2021/09/15 04:21:21;;;;;;;33.58;9.15;;;21.90;91.30;;;;;;5062468;28;20012;-61
2021/09/15 04:31:58;;;;;;;34.67;8.82;;;21.90;91.40;;;;;;5086646;28;20042;-61
2021/09/15 04:34:24;;;;;;;20.20;7.93;;;21.80;91.50;;;;;;5066128;28;20500;-61
2021/09/15 04:36:49;;;;;;;24.92;8.18;;;21.80;91.50;;;;;;5081931;28;20478;-61
2021/09/15 04:39:15;;;;;;;24.33;8.20;;;21.80;91.60;;;;;;5060117;28;20118;-61
2021/09/15 04:41:40;;;;;;;26.65;8.80;;;21.80;91.60;;;;;;5085003;28;20036;-61
2021/09/15 04:44:06;;;;;;;33.85;8.52;;;21.80;91.60;;;;;;5061563;28;20213;-61
2021/09/15 04:46:31;;;;;;;35.47;8.85;;;21.80;91.60;;;;;;5080777;28;20107;-61
2021/09/15 04:48:57;;;;;;;25.20;7.57;;;21.80;91.80;;;;;;5059781;28;20119;-61
2021/09/15 04:51:22;;;;;;;26.20;8.27;;;21.80;91.70;;;;;;5056364;28;20019;-61
2021/09/15 04:53:48;;;;;;;23.73;8.02;;;21.80;91.70;;;;;;5083131;28;20020;-60
2021/09/15 04:56:13;;;;;;;30.23;8.32;;;21.80;91.70;;;;;;5067810;28;20024;-61
2021/09/15 04:58:39;;;;;;;23.25;7.55;;;21.80;91.80;;;;;;5082554;28;20039;-61
2021/09/15 05:01:05;;;;;;;27.10;8.65;;;21.80;92.00;;;;;;5074109;28;20098;-61
2021/09/15 05:03:30;;;;;;;47.95;10.35;;;21.80;92.10;;;;;;5074213;28;20271;-61
2021/09/15 05:05:56;;;;;;;59.40;11.23;;;21.80;92.00;;;;;;5047001;28;20513;-61
2021/09/15 05:08:21;;;;;;;67.07;10.75;;;21.80;92.00;;;;;;5082686;28;20028;-61
2021/09/15 05:10:47;;;;;;;67.32;10.38;;;21.70;92.00;;;;;;5084591;28;20105;-61
2021/09/15 05:13:12;;;;;;;44.35;9.65;;;21.70;91.90;;;;;;5084939;28;20101;-61
2021/09/15 05:15:38;;;;;;;44.03;9.93;;;21.80;91.90;;;;;;5096957;28;20180;-61
2021/09/15 05:18:03;;;;;;;50.97;8.95;;;21.70;91.90;;;;;;5077761;28;20032;-61
2021/09/15 05:20:29;;;;;;;49.25;9.65;;;21.70;91.90;;;;;;5078036;28;20095;-61
2021/09/15 05:22:54;;;;;;;34.95;8.30;;;21.80;91.90;;;;;;5093867;28;20427;-60
2021/09/15 05:25:21;;;;;;;27.95;7.43;;;21.70;92.00;;;;;;5063458;28;20028;-61
2021/09/15 05:27:46;;;;;;;30.30;7.90;;;21.80;92.00;;;;;;5077848;28;20035;-61
2021/09/15 05:30:12;;;;;;;26.10;8.52;;;21.80;91.90;;;;;;5085325;28;20028;-61
2021/09/15 05:32:38;;;;;;;29.05;8.10;;;21.80;91.90;;;;;;5077178;28;20435;-61
2021/09/15 05:35:04;;;;;;;26.77;8.18;;;21.70;91.90;;;;;;5056048;28;20043;-61
2021/09/15 05:37:30;;;;;;;28.42;9.15;;;21.70;91.90;;;;;;5058994;28;20624;-61
2021/09/15 05:39:55;;;;;;;28.27;8.32;;;21.70;91.90;;;;;;5076749;28;20115;-61
2021/09/15 05:42:21;;;;;;;26.92;7.70;;;21.70;91.90;;;;;;5061062;28;20484;-61
2021/09/15 05:44:46;;;;;;;17.60;7.57;;;21.70;91.90;;;;;;5058544;28;20368;-61
2021/09/15 05:47:12;;;;;;;35.63;8.10;;;21.70;91.90;;;;;;5062467;28;20031;-61
2021/09/15 05:49:37;;;;;;;25.48;7.70;;;21.70;91.90;;;;;;5064971;28;20452;-61
2021/09/15 05:52:03;;;;;;;27.35;7.95;;;21.70;92.00;;;;;;5062676;28;20036;-61
2021/09/15 05:54:29;;;;;;;19.52;7.63;;;21.70;92.00;;;;;;5070741;28;20028;-61
2021/09/15 05:56:54;;;;;;;16.85;7.00;;;21.70;92.00;;;;;;5035410;28;20024;-61
2021/09/15 05:59:20;;;;;;;19.15;7.53;;;21.60;92.10;;;;;;5079224;28;20118;-61
2021/09/15 06:01:45;;;;;;;17.38;6.80;;;21.60;92.30;;;;;;5081538;28;20039;-61
2021/09/15 06:04:11;;;;;;;17.95;7.97;;;21.60;92.00;;;;;;5064384;28;20125;-61
2021/09/15 06:06:36;;;;;;;14.90;7.43;;;21.60;92.10;;;;;;5069485;28;20035;-61
2021/09/15 06:09:02;;;;;;;18.33;8.32;;;21.60;92.20;;;;;;5072980;28;20388;-61
2021/09/15 06:11:27;;;;;;;19.00;7.47;;;21.60;92.20;;;;;;5059403;28;20034;-60
2021/09/15 06:13:54;;;;;;;10.98;6.68;;;21.60;92.30;;;;;;5077345;28;20069;-61
2021/09/15 06:16:21;;;;;;;22.80;8.00;;;21.60;92.40;;;;;;5051428;28;20031;-61
2021/09/15 06:18:46;;;;;;;15.90;7.18;;;21.60;92.40;;;;;;5055886;28;20044;-61
2021/09/15 06:21:12;;;;;;;22.58;7.60;;;21.60;92.40;;;;;;5070086;28;20341;-61
2021/09/15 06:23:38;;;;;;;20.23;7.35;;;21.60;92.50;;;;;;5067563;28;20444;-60
2021/09/15 06:26:03;;;;;;;16.75;6.97;;;21.60;92.60;;;;;;5054580;28;20031;-61
2021/09/15 06:28:29;;;;;;;14.95;7.30;;;21.60;92.50;;;;;;5047291;28;20045;-61
2021/09/15 06:30:55;;;;;;;18.88;8.45;;;21.60;92.50;;;;;;5081265;28;20455;-61
2021/09/15 06:33:21;;;;;;;17.48;7.70;;;21.60;92.50;;;;;;5076397;28;20028;-61
2021/09/15 06:35:47;;;;;;;20.45;7.63;;;21.60;92.50;;;;;;5086200;28;20078;-61
2021/09/15 06:38:12;;;;;;;16.27;8.05;;;21.60;92.60;;;;;;5075318;28;20067;-60
2021/09/15 06:40:38;;;;;;;20.33;7.60;;;21.60;92.60;;;;;;5039115;28;20324;-61
2021/09/15 06:43:04;;;;;;;27.25;7.82;;;21.60;92.70;;;;;;5073437;28;20033;-61
2021/09/15 06:45:29;;;;;;;17.35;7.72;;;21.60;92.70;;;;;;5051390;28;20055;-61
2021/09/15 06:47:55;;;;;;;36.45;8.10;;;21.60;92.70;;;;;;5052873;28;20029;-61
2021/09/15 06:50:20;;;;;;;22.05;8.07;;;21.60;92.70;;;;;;5055309;28;20036;-61
2021/09/15 06:52:46;;;;;;;22.38;8.70;;;21.60;92.80;;;;;;5069531;28;20484;-61
2021/09/15 06:55:11;;;;;;;20.65;7.65;;;21.60;92.90;;;;;;5059773;28;20078;-60
2021/09/15 06:57:37;;;;;;;25.60;7.53;;;21.70;92.90;;;;;;5060516;28;20118;-61
2021/09/15 07:00:04;;;;;;;28.90;8.77;;;21.60;92.80;;;;;;5081820;28;20039;-60
2021/09/15 07:02:29;;;;;;;56.15;10.57;;;21.60;92.80;;;;;;5085839;28;20028;-61
2021/09/15 07:04:55;;;;;;;49.72;11.32;;;21.70;93.30;;;;;;5082169;28;20093;-61
2021/09/15 07:07:20;;;;;;;41.17;10.75;;;21.60;93.70;;;;;;5059542;28;20016;-61
2021/09/15 07:09:46;;;;;;;38.72;10.68;;;21.60;93.60;;;;;;5061842;28;20099;-61
2021/09/15 07:12:11;;;;;;;32.78;10.48;;;21.60;93.80;;;;;;5089224;28;20106;-61
2021/09/15 07:14:37;;;;;;;38.08;11.13;;;21.60;94.10;;;;;;5073061;28;20048;-61
2021/09/15 07:17:02;;;;;;;25.33;10.48;;;21.60;94.40;;;;;;5064472;28;20062;-61
2021/09/15 07:19:28;;;;;;;36.42;10.68;;;21.60;94.60;;;;;;5084919;28;20471;-61
2021/09/15 07:21:53;;;;;;;32.25;10.88;;;21.60;94.40;;;;;;5083982;28;20024;-61
2021/09/15 07:24:19;;;;;;;42.08;11.10;;;21.60;94.50;;;;;;5057457;28;20040;-62
2021/09/15 07:26:45;;;;;;;38.42;10.98;;;21.60;94.50;;;;;;5078982;28;20028;-61
2021/09/15 07:29:10;;;;;;;51.33;11.77;;;21.70;94.50;;;;;;5075248;28;20030;-61
2021/09/15 07:31:38;;;;;;;42.45;10.65;;;21.60;94.70;;;;;;5080475;28;20100;-61
2021/09/15 07:34:06;;;;;;;43.10;10.73;;;21.60;94.70;;;;;;5067456;28;20024;-60
2021/09/15 07:36:35;;;;;;;51.05;11.95;;;21.70;94.50;;;;;;5082552;28;20042;-60
2021/09/15 07:39:02;;;;;;;46.72;11.43;;;21.70;94.50;;;;;;5055800;28;20036;-61
2021/09/15 07:41:27;;;;;;;39.53;11.77;;;21.70;94.70;;;;;;5053708;28;20510;-61
2021/09/15 07:43:53;;;;;;;46.80;11.30;;;21.70;94.70;;;;;;5060290;28;20033;-61
2021/09/15 07:46:22;;;;;;;42.63;10.88;;;21.70;94.40;;;;;;5086922;28;20063;-61
2021/09/15 07:48:48;;;;;;;54.42;12.13;;;21.70;94.40;;;;;;5046463;28;20056;-61
2021/09/15 07:51:15;;;;;;;43.33;11.68;;;21.80;94.60;;;;;;5064395;28;20020;-61
2021/09/15 07:53:41;;;;;;;88.68;14.57;;;21.80;94.80;;;;;;5061319;28;20025;-61
2021/09/15 07:56:07;;;;;;;68.47;14.02;;;21.80;94.80;;;;;;5062746;28;20032;-61
2021/09/15 07:58:32;;;;;;;120.85;17.25;;;21.80;94.70;;;;;;5063203;28;20583;-61
2021/09/15 08:00:58;;;;;;;81.38;14.43;;;21.80;94.90;;;;;;5080319;28;20042;-61
2021/09/15 08:03:23;;;;;;;58.88;14.18;;;21.80;94.80;;;;;;5060612;28;20475;-60
2021/09/15 08:05:49;;;;;;;68.75;12.40;;;21.80;94.90;;;;;;5048052;28;20115;-61
2021/09/15 08:08:14;;;;;;;97.43;16.65;;;21.80;94.90;;;;;;5069389;28;20040;-61
2021/09/15 08:10:40;;;;;;;61.47;13.40;;;21.70;95.00;;;;;;5054509;28;20035;-61
2021/09/15 08:13:06;;;;;;;56.45;13.93;;;21.80;95.20;;;;;;5049973;28;20032;-61
2021/09/15 08:15:32;;;;;;;40.78;11.68;;;21.80;95.30;;;;;;5073713;28;20079;-61
2021/09/15 08:17:57;;;;;;;50.10;11.60;;;21.80;95.40;;;;;;5081268;28;20042;-62
2021/09/15 08:20:23;;;;;;;46.17;12.93;;;21.70;95.40;;;;;;5085099;28;20040;-61
2021/09/15 08:22:48;;;;;;;37.88;11.82;;;21.70;95.60;;;;;;5037153;28;20032;-61
2021/09/15 08:25:14;;;;;;;61.67;13.38;;;21.70;95.40;;;;;;5064067;28;20070;-61
2021/09/15 08:27:39;;;;;;;56.55;13.65;;;21.70;95.70;;;;;;5039569;28;20052;-61
2021/09/15 08:30:06;;;;;;;45.30;11.80;;;21.80;95.70;;;;;;5072483;28;20235;-61
2021/09/15 08:32:31;;;;;;;59.22;13.25;;;21.80;95.70;;;;;;5045539;28;20024;-61
2021/09/15 08:34:57;;;;;;;50.28;12.63;;;21.80;95.70;;;;;;5059850;28;20092;-61
2021/09/15 08:37:22;;;;;;;43.08;12.45;;;21.80;95.50;;;;;;5073191;28;20039;-61
2021/09/15 08:39:48;;;;;;;52.60;12.80;;;21.80;95.50;;;;;;5060853;28;20035;-61
2021/09/15 08:42:13;;;;;;;47.35;12.85;;;21.90;95.40;;;;;;5081564;28;20032;-61
2021/09/15 08:44:39;;;;;;;42.17;12.77;;;21.90;95.00;;;;;;5082623;28;20016;-61
2021/09/15 08:47:05;;;;;;;47.92;12.48;;;21.90;94.90;;;;;;5065444;28;20024;-61
2021/09/15 08:49:31;;;;;;;67.57;13.85;;;21.90;95.50;;;;;;5082801;28;20040;-61
2021/09/15 08:51:56;;;;;;;66.13;13.13;;;22.00;95.20;;;;;;5046920;28;20052;-60
2021/09/15 08:54:22;;;;;;;77.28;15.00;;;21.90;95.40;;;;;;5045238;28;20530;-61
2021/09/15 08:56:48;;;;;;;48.78;12.70;;;22.00;95.60;;;;;;5046486;28;20056;-61
2021/09/15 08:59:13;;;;;;;72.53;15.00;;;22.00;95.70;;;;;;5055833;28;20032;-60
2021/09/15 09:01:39;;;;;;;68.95;14.18;;;22.00;95.50;;;;;;5056855;28;20082;-64
2021/09/15 09:04:05;;;;;;;49.55;13.90;;;22.00;95.50;;;;;;5056288;28;20464;-64
2021/09/15 09:06:32;;;;;;;73.90;14.40;;;22.00;95.70;;;;;;5059022;28;20073;-63
2021/09/15 09:08:57;;;;;;;70.82;14.50;;;22.00;95.40;;;;;;5077043;28;20059;-63
2021/09/15 09:11:31;;;;;;;84.82;14.80;;;22.00;95.40;;;;;;5059717;28;20020;-61
2021/09/15 09:14:01;;;;;;;76.03;14.95;;;22.10;95.70;;;;;;5059024;28;20111;-61
2021/09/15 09:16:41;;;;;;;52.83;12.23;;;22.10;95.60;;;;;;5078832;28;20154;-61
2021/09/15 09:19:09;;;;;;;55.28;13.68;;;22.10;95.40;;;;;;5070636;28;20499;-61
2021/09/15 09:21:35;;;;;;;70.85;13.95;;;22.10;95.50;;;;;;5077169;28;20072;-61
2021/09/15 09:24:02;;;;;;;56.70;12.27;;;22.10;95.40;;;;;;5061130;28;20083;-62
2021/09/15 09:26:50;;;;;;;72.13;13.65;;;22.10;95.40;;;;;;5043484;28;20043;-61
2021/09/15 09:29:37;;;;;;;65.38;12.93;;;22.10;95.20;;;;;;5076881;28;20368;-61
2021/09/15 09:32:05;;;;;;;51.25;12.48;;;22.10;95.30;;;;;;5061434;28;20063;-61
2021/09/15 09:34:42;;;;;;;57.88;11.48;;;22.10;95.20;;;;;;5056068;28;20027;-60
2021/09/15 09:37:19;;;;;;;54.85;12.32;;;22.10;95.10;;;;;;5041183;28;20032;-61
2021/09/15 09:39:48;;;;;;;63.63;11.82;;;22.10;95.20;;;;;;5026852;28;20090;-61
2021/09/15 09:42:22;;;;;;;50.97;11.57;;;22.20;95.10;;;;;;5061302;28;20094;-61
2021/09/15 09:45:09;;;;;;;46.50;12.40;;;22.20;95.20;;;;;;5076253;28;20099;-61
2021/09/15 09:47:40;;;;;;;47.80;11.23;;;22.10;95.20;;;;;;5057669;28;20202;-61
2021/09/15 09:50:12;;;;;;;49.15;12.20;;;22.20;95.40;;;;;;5045671;28;20035;-61
2021/09/15 09:52:53;;;;;;;51.03;11.43;;;22.20;95.10;;;;;;5046263;28;20118;-61
2021/09/15 09:55:19;;;;;;;44.50;11.75;;;22.20;94.90;;;;;;5070768;28;20294;-61
2021/09/15 09:57:51;;;;;;;47.10;10.98;;;22.20;94.90;;;;;;5076553;28;20020;-60
2021/09/15 10:00:19;;;;;;;61.38;12.95;;;22.20;94.90;;;;;;5045553;28;21436;-60
2021/09/15 10:02:45;;;;;;;55.40;12.65;;;22.20;94.90;;;;;;5044050;28;20814;-64
2021/09/15 10:05:11;;;;;;;46.63;11.48;;;22.30;94.90;;;;;;5063639;28;20138;-60
2021/09/15 10:07:42;;;;;;;55.45;12.82;;;22.30;95.40;;;;;;5046234;28;20098;-61
2021/09/15 10:10:15;;;;;;;60.58;14.23;;;22.30;95.80;;;;;;5031486;28;20044;-59
2021/09/15 10:12:41;;;;;;;55.97;13.73;;;22.30;95.70;;;;;;5058192;28;20024;-61
2021/09/15 10:15:08;;;;;;;54.10;11.02;;;22.30;95.90;;;;;;5057685;28;20043;-60
2021/09/15 10:17:34;;;;;;;49.15;11.60;;;22.40;95.60;;;;;;5057612;28;20051;-60
2021/09/15 10:19:59;;;;;;;50.40;12.05;;;22.40;95.40;;;;;;5041650;28;20040;-61
2021/09/15 10:22:33;;;;;;;68.75;14.10;;;22.40;95.20;;;;;;5050606;28;20072;-61
2021/09/15 10:25:00;;;;;;;65.70;12.85;;;22.50;95.30;;;;;;5004103;28;20123;-60
2021/09/15 10:27:29;;;;;;;56.60;12.52;;;22.50;95.40;;;;;;5019892;28;20032;-61
2021/09/15 10:30:02;;;;;;;63.92;12.48;;;22.50;95.40;;;;;;5042725;28;20017;-61
2021/09/15 10:32:32;;;;;;;64.95;14.57;;;22.60;95.10;;;;;;5043680;28;20024;-60
2021/09/15 10:34:58;;;;;;;60.28;14.45;;;22.60;95.10;;;;;;5041580;28;20522;-61
2021/09/15 10:37:23;;;;;;;63.65;14.35;;;22.60;95.20;;;;;;5057429;28;20208;-61
2021/09/15 10:40:09;;;;;;;52.17;14.43;;;22.70;95.30;;;;;;5059614;28;20120;-60
2021/09/15 10:42:47;;;;;;;68.82;13.98;;;22.70;95.30;;;;;;5024207;28;20120;-61
2021/09/15 10:45:25;;;;;;;67.05;13.50;;;22.70;95.30;;;;;;5058623;28;20047;-60
2021/09/15 10:47:53;;;;;;;66.50;13.55;;;22.70;95.20;;;;;;5040512;28;20084;-60
2021/09/15 10:50:29;;;;;;;57.15;13.13;;;22.70;95.10;;;;;;5039189;28;20025;-61
2021/09/15 10:53:03;;;;;;;43.72;13.23;;;22.80;95.10;;;;;;5055383;28;20032;-60
2021/09/15 10:55:46;;;;;;;48.95;13.32;;;22.80;95.00;;;;;;5040483;28;20123;-61
2021/09/15 10:58:14;;;;;;;48.53;11.73;;;22.80;94.80;;;;;;5028139;28;20558;-61
2021/09/15 11:00:50;;;;;;;53.53;13.30;;;22.80;94.60;;;;;;5043848;28;20037;-60
2021/09/15 11:03:32;;;;;;;56.90;13.65;;;22.90;94.60;;;;;;5022902;28;20051;-61
2021/09/15 11:06:18;;;;;;;43.40;13.35;;;22.90;94.70;;;;;;5036533;28;20658;-61
2021/09/15 11:08:51;;;;;;;43.88;12.55;;;22.90;94.50;;;;;;5057931;28;20093;-61
2021/09/15 11:11:19;;;;;;;50.35;12.30;;;23.00;94.30;;;;;;5037455;28;20404;-61
2021/09/15 11:14:09;;;;;;;57.65;13.13;;;23.00;94.10;;;;;;5054804;28;20047;-61
2021/09/15 11:16:41;;;;;;;40.47;10.65;;;23.10;94.00;;;;;;5041610;28;20035;-60
2021/09/15 11:19:11;;;;;;;50.13;11.13;;;23.00;93.70;;;;;;5033162;28;20100;-61
2021/09/15 11:21:52;;;;;;;39.05;11.35;;;23.00;93.60;;;;;;5055486;28;20029;-61
2021/09/15 11:24:20;;;;;;;40.75;10.75;;;23.10;93.60;;;;;;5033425;28;20046;-60
2021/09/15 11:26:49;;;;;;;43.35;10.35;;;23.10;93.30;;;;;;5034135;28;20105;-61
2021/09/15 11:29:33;;;;;;;41.95;10.77;;;23.10;93.30;;;;;;5075697;28;20036;-60
2021/09/15 11:31:59;;;;;;;36.45;10.88;;;23.10;93.20;;;;;;5062672;28;20020;-61
2021/09/15 11:34:24;;;;;;;34.10;11.23;;;23.20;93.00;;;;;;5080064;28;20367;-61
2021/09/15 11:36:50;;;;;;;39.20;10.68;;;23.20;93.00;;;;;;5080891;28;20089;-61
2021/09/15 11:39:17;;;;;;;32.20;10.35;;;23.20;92.70;;;;;;5057901;28;20161;-61
2021/09/15 11:41:42;;;;;;;36.97;10.57;;;23.20;92.70;;;;;;5077590;28;20751;-61
2021/09/15 11:44:08;;;;;;;39.25;10.38;;;23.20;92.60;;;;;;5074756;28;20044;-61
2021/09/15 11:46:36;;;;;;;39.00;10.05;;;23.20;92.60;;;;;;5061368;28;20040;-60
2021/09/15 11:49:02;;;;;;;44.00;11.23;;;23.30;92.50;;;;;;5058634;28;20035;-61
2021/09/15 11:51:33;;;;;;;45.03;10.93;;;23.30;92.20;;;;;;5056377;28;20071;-61
2021/09/15 11:57:13;;;;;;;35.08;10.90;;;23.30;92.00;;;;;;5055727;28;20090;-60
2021/09/15 11:59:15;;;;;;;32.85;10.20;;;23.30;92.10;;;;;;5043208;28;20098;-60
2021/09/15 12:01:41;;;;;;;37.20;9.63;;;23.30;91.90;;;;;;5055697;28;20135;-61
2021/09/15 12:04:08;;;;;;;29.73;8.68;;;23.30;91.90;;;;;;5057673;28;20027;-61
2021/09/15 12:06:33;;;;;;;44.17;10.52;;;23.40;92.00;;;;;;5056679;28;20032;-61
2021/09/15 12:08:59;;;;;;;25.80;8.45;;;23.40;91.90;;;;;;5043928;28;20601;-61
2021/09/15 12:11:30;;;;;;;29.17;10.02;;;23.40;91.90;;;;;;5057317;28;20024;-61
2021/09/15 12:13:59;;;;;;;29.17;9.25;;;23.30;91.80;;;;;;5059550;28;20479;-61
2021/09/15 12:16:32;;;;;;;22.60;8.38;;;23.40;91.70;;;;;;5054715;28;20119;-61
2021/09/15 12:18:58;;;;;;;35.03;8.63;;;23.40;91.70;;;;;;5060126;28;20043;-61
2021/09/15 12:21:24;;;;;;;29.10;9.80;;;23.40;91.60;;;;;;5079537;28;20036;-61
2021/09/15 12:23:50;;;;;;;30.17;9.10;;;23.40;91.70;;;;;;5072589;28;20047;-61
2021/09/15 12:26:25;;;;;;;46.63;10.32;;;23.40;91.70;;;;;;5052937;28;20039;-61
2021/09/15 12:29:11;;;;;;;30.13;9.15;;;23.50;91.60;;;;;;5045117;28;20118;-61
2021/09/15 12:31:39;;;;;;;36.45;10.30;;;23.50;91.60;;;;;;5045379;28;20028;-61
2021/09/15 12:34:05;;;;;;;23.25;7.97;;;23.50;91.60;;;;;;5058472;28;20656;-61
2021/09/15 12:36:30;;;;;;;26.50;9.00;;;23.50;91.50;;;;;;5044150;28;20055;-61
2021/09/15 12:38:57;;;;;;;37.85;9.18;;;23.50;91.50;;;;;;5074133;28;20055;-61
2021/09/15 12:41:24;;;;;;;35.00;10.15;;;23.50;91.50;;;;;;5055365;28;20131;-61
2021/09/15 12:43:49;;;;;;;27.63;7.95;;;23.60;91.50;;;;;;5038270;28;20044;-61